createdAt,value
2019-05-07T00:00:43.768Z,67.00
2019-05-07T00:03:12.484Z,68.20
2019-05-07T00:05:42.769Z,69.30
2019-05-07T00:08:12.256Z,69.80
2019-05-07T00:10:42.490Z,69.70
2019-05-07T00:13:13.070Z,70.00
2019-05-07T00:15:42.042Z,70.00
2019-05-07T00:18:12.703Z,69.70
2019-05-07T00:20:42.370Z,69.80
2019-05-07T00:23:12.376Z,69.70
2019-05-07T00:25:42.150Z,70.60
2019-05-07T00:28:12.232Z,71.30
2019-05-07T00:30:42.526Z,72.30
2019-05-07T00:33:14.137Z,72.20
2019-05-07T00:35:52.934Z,72.90
2019-05-07T00:38:22.487Z,72.90
2019-05-07T00:40:59.084Z,73.80
2019-05-07T00:43:29.415Z,73.80
2019-05-07T00:46:02.098Z,72.80
2019-05-07T00:48:30.053Z,72.40
2019-05-07T00:51:16.801Z,73.40
2019-05-07T00:53:45.715Z,73.20
2019-05-07T00:56:14.338Z,73.90
2019-05-07T00:58:43.201Z,74.10
2019-05-07T01:01:13.057Z,74.90
2019-05-07T01:03:42.790Z,74.40
2019-05-07T01:06:12.850Z,74.40
2019-05-07T01:08:43.393Z,74.70
2019-05-07T01:11:13.174Z,74.80
2019-05-07T01:13:43.108Z,74.70
2019-05-07T01:16:12.877Z,75.30
2019-05-07T01:18:42.276Z,75.40
2019-05-07T01:21:13.067Z,76.10
2019-05-07T01:23:42.770Z,76.50
2019-05-07T01:26:13.808Z,77.20
2019-05-07T01:28:47.052Z,77.70
2019-05-07T01:31:17.320Z,77.90
2019-05-07T01:33:47.666Z,78.70
2019-05-07T01:36:19.616Z,78.10
2019-05-07T01:38:48.586Z,79.00
2019-05-07T01:41:17.981Z,78.90
2019-05-07T01:43:48.304Z,78.50
2019-05-07T01:46:16.999Z,78.70
2019-05-07T01:48:45.715Z,79.20
2019-05-07T01:51:14.566Z,79.40
2019-05-07T01:53:43.414Z,80.30
2019-05-07T01:56:12.503Z,79.90
2019-05-07T01:58:42.917Z,80.10
2019-05-07T02:01:13.129Z,79.70
2019-05-07T02:03:52.966Z,79.90
2019-05-07T02:06:29.824Z,80.00
2019-05-07T02:09:02.953Z,80.60
2019-05-07T02:11:43.115Z,80.50
2019-05-07T02:14:13.600Z,80.80
2019-05-07T02:16:42.308Z,81.80
2019-05-07T02:19:12.643Z,81.70
2019-05-07T02:21:42.369Z,81.60
2019-05-07T02:24:12.604Z,81.70
2019-05-07T02:26:42.720Z,81.70
2019-05-07T02:29:12.239Z,81.70
2019-05-07T02:31:44.270Z,81.50
2019-05-07T02:34:14.124Z,81.60
2019-05-07T02:36:43.358Z,81.70
2019-05-07T02:39:14.105Z,82.40
2019-05-07T02:41:44.143Z,83.60
2019-05-07T02:44:13.912Z,83.00
2019-05-07T02:47:00.045Z,82.90
2019-05-07T02:49:48.168Z,83.30
2019-05-07T02:52:18.479Z,83.50
2019-05-07T02:55:03.987Z,83.30
2019-05-07T02:57:34.004Z,84.00
2019-05-07T03:00:04.431Z,84.10
2019-05-07T03:02:33.231Z,83.70
2019-05-07T03:05:05.212Z,84.10
2019-05-07T03:07:33.455Z,83.90
2019-05-07T03:10:04.776Z,83.40
2019-05-07T03:12:33.772Z,83.20
2019-05-07T03:15:04.526Z,83.20
2019-05-07T03:17:33.539Z,83.00
2019-05-07T03:20:04.142Z,83.50
2019-05-07T03:22:33.763Z,83.20
2019-05-07T03:25:04.773Z,82.80
2019-05-07T03:27:34.325Z,82.30
2019-05-07T03:30:16.143Z,82.10
2019-05-07T03:32:46.813Z,82.50
2019-05-07T03:35:16.170Z,82.30
2019-05-07T03:37:44.878Z,82.40
2019-05-07T03:40:14.694Z,82.60
2019-05-07T03:42:44.236Z,83.10
2019-05-07T03:45:33.673Z,82.80
2019-05-07T03:48:15.820Z,83.60
2019-05-07T03:50:46.421Z,83.80
2019-05-07T03:53:15.722Z,83.00
2019-05-07T03:55:45.151Z,83.50
2019-05-07T03:58:14.861Z,83.60
2019-05-07T04:00:44.727Z,83.40
2019-05-07T04:03:18.776Z,83.70
2019-05-07T04:05:45.117Z,83.70
2019-05-07T04:08:14.506Z,83.60
2019-05-07T04:10:45.257Z,84.10
2019-05-07T04:13:14.576Z,84.20
2019-05-07T04:15:44.439Z,84.00
2019-05-07T04:18:13.840Z,83.50
2019-05-07T04:20:43.981Z,83.50
2019-05-07T04:23:14.132Z,83.50
2019-05-07T04:26:03.844Z,84.10
2019-05-07T04:28:39.023Z,84.10
2019-05-07T04:31:08.673Z,83.90
2019-05-07T04:33:39.432Z,83.30
2019-05-07T04:36:14.419Z,83.80
2019-05-07T04:38:44.208Z,84.00
2019-05-07T04:41:14.117Z,84.30
2019-05-07T04:43:43.710Z,84.20
2019-05-07T04:46:14.421Z,83.90
2019-05-07T04:48:44.310Z,83.40
2019-05-07T04:51:15.396Z,82.90
2019-05-07T04:53:44.712Z,82.80
2019-05-07T04:56:14.185Z,82.30
2019-05-07T04:58:43.924Z,82.40
2019-05-07T05:01:14.802Z,82.40
2019-05-07T05:03:44.399Z,82.60
2019-05-07T05:06:14.097Z,82.50
2019-05-07T05:08:44.820Z,82.60
2019-05-07T05:11:13.931Z,82.20
2019-05-07T05:13:44.333Z,82.40
2019-05-07T05:16:24.065Z,82.90
2019-05-07T05:18:54.441Z,82.80
2019-05-07T05:21:42.038Z,82.40
2019-05-07T05:24:12.947Z,82.30
2019-05-07T05:26:42.516Z,80.50
2019-05-07T05:29:12.154Z,80.90
2019-05-07T05:31:42.281Z,81.10
2019-05-07T05:34:13.083Z,80.50
2019-05-07T05:36:42.725Z,80.50
2019-05-07T05:39:13.192Z,80.10
2019-05-07T05:41:44.879Z,79.10
2019-05-07T05:44:14.931Z,78.50
2019-05-07T05:46:44.479Z,78.30
2019-05-07T05:49:13.938Z,77.60
2019-05-07T05:51:44.816Z,76.70
2019-05-07T05:54:31.875Z,76.20
2019-05-07T05:57:03.037Z,76.20
2019-05-07T05:59:47.915Z,75.20
2019-05-07T06:02:12.141Z,75.20
2019-05-07T06:04:49.448Z,75.00
2019-05-07T06:07:22.702Z,73.90
2019-05-07T06:10:12.704Z,74.10
2019-05-07T06:12:42.899Z,73.70
2019-05-07T06:15:26.078Z,73.30
2019-05-07T06:17:57.006Z,73.20
2019-05-07T06:20:27.983Z,72.60
2019-05-07T06:23:16.824Z,72.60
2019-05-07T06:25:47.597Z,72.10
2019-05-07T06:28:17.201Z,72.70
2019-05-07T06:30:46.624Z,72.70
2019-05-07T06:33:16.073Z,72.30
2019-05-07T06:35:45.695Z,72.20
2019-05-07T06:38:15.448Z,71.30
2019-05-07T06:40:49.315Z,71.00
2019-05-07T06:43:24.947Z,70.00
2019-05-07T06:45:55.762Z,69.60
2019-05-07T06:48:37.632Z,68.30
2019-05-07T06:51:00.223Z,66.80
2019-05-07T06:53:33.277Z,67.40
2019-05-07T06:56:05.415Z,67.60
2019-05-07T06:58:36.043Z,67.50
2019-05-07T07:01:07.258Z,67.60
2019-05-07T07:03:44.221Z,68.10
2019-05-07T07:06:15.973Z,68.30
2019-05-07T07:08:48.816Z,67.10
2019-05-07T07:11:29.279Z,67.00
2019-05-07T07:13:59.228Z,67.10
2019-05-07T07:16:28.197Z,66.20
2019-05-07T07:18:57.499Z,66.40
2019-05-07T07:21:26.665Z,65.90
2019-05-07T07:23:56.205Z,65.50
2019-05-07T07:26:26.505Z,65.20
2019-05-07T07:28:56.111Z,64.40
2019-05-07T07:31:39.623Z,64.60
2019-05-07T07:34:09.491Z,64.10
2019-05-07T07:36:42.333Z,62.70
2019-05-07T07:39:12.660Z,61.90
2019-05-07T07:41:47.674Z,60.40
2019-05-07T07:44:17.297Z,60.90
2019-05-07T07:46:47.170Z,60.20
2019-05-07T07:49:17.889Z,61.00
2019-05-07T07:51:48.476Z,60.30
2019-05-07T07:54:19.230Z,59.40
2019-05-07T07:57:09.848Z,59.80
2019-05-07T07:59:42.117Z,58.60
2019-05-07T08:02:13.216Z,58.00
2019-05-07T08:04:42.672Z,57.90
2019-05-07T08:07:12.499Z,57.80
2019-05-07T08:09:42.755Z,58.30
2019-05-07T08:12:12.984Z,57.00
2019-05-07T08:14:42.872Z,56.90
2019-05-07T08:17:12.971Z,56.60
2019-05-07T08:19:43.082Z,56.40
2019-05-07T08:22:12.630Z,55.80
2019-05-07T08:24:42.633Z,55.00
2019-05-07T08:27:14.734Z,53.80
2019-05-07T08:29:43.306Z,52.70
2019-05-07T08:32:23.650Z,51.50
2019-05-07T08:35:14.113Z,49.10
2019-05-07T08:37:42.727Z,48.60
2019-05-07T08:40:12.877Z,45.20
2019-05-07T08:42:42.330Z,44.10
2019-05-07T08:45:32.514Z,43.40
2019-05-07T08:48:12.595Z,42.70
2019-05-07T08:50:42.627Z,41.30
2019-05-07T08:53:13.198Z,38.70
2019-05-07T08:55:42.963Z,39.50
2019-05-07T08:58:12.480Z,38.10
2019-05-07T09:00:42.368Z,36.70
2019-05-07T09:03:20.187Z,36.80
2019-05-07T09:05:42.709Z,37.40
2019-05-07T09:08:12.857Z,38.00
2019-05-07T09:10:42.299Z,36.90
2019-05-07T09:13:12.582Z,36.20
2019-05-07T09:15:42.521Z,34.50
2019-05-07T09:18:12.478Z,36.00
2019-05-07T09:20:42.511Z,38.80
2019-05-07T09:23:12.234Z,38.90
2019-05-07T09:25:45.915Z,41.50
2019-05-07T09:28:15.385Z,42.20
2019-05-07T09:31:01.799Z,43.50
2019-05-07T09:33:42.286Z,44.50
2019-05-07T09:36:13.479Z,44.70
2019-05-07T09:38:55.234Z,46.20
2019-05-07T09:41:14.872Z,45.80
2019-05-07T09:43:44.060Z,46.20
2019-05-07T09:46:13.509Z,45.60
2019-05-07T09:48:42.737Z,46.70
2019-05-07T09:51:12.301Z,46.00
2019-05-07T09:53:42.501Z,46.00
2019-05-07T09:56:12.345Z,45.60
2019-05-07T09:58:42.590Z,43.80
2019-05-07T10:01:12.538Z,45.70
2019-05-07T10:03:42.860Z,45.40
2019-05-07T10:06:12.485Z,45.50
2019-05-07T10:08:42.022Z,46.70
2019-05-07T10:11:12.936Z,46.60
2019-05-07T10:13:44.009Z,45.30
2019-05-07T10:16:15.044Z,44.90
2019-05-07T10:18:44.636Z,43.40
2019-05-07T10:21:14.083Z,41.10
2019-05-07T10:23:43.669Z,36.70
2019-05-07T10:26:13.051Z,34.60
2019-05-07T10:28:42.561Z,35.20
2019-05-07T10:31:11.971Z,35.70
2019-05-07T10:33:42.212Z,36.40
2019-05-07T10:36:12.497Z,37.40
2019-05-07T10:38:42.204Z,37.60
2019-05-07T10:41:12.249Z,37.00
2019-05-07T10:43:42.828Z,35.80
2019-05-07T10:46:19.888Z,32.70
2019-05-07T10:48:50.731Z,32.20
2019-05-07T10:51:21.699Z,29.50
2019-05-07T10:53:51.784Z,30.00
2019-05-07T10:56:22.382Z,30.80
2019-05-07T10:58:52.336Z,32.30
2019-05-07T11:01:23.105Z,34.40
2019-05-07T11:03:52.324Z,37.40
2019-05-07T11:06:22.428Z,38.40
2019-05-07T11:08:52.109Z,39.40
2019-05-07T11:11:21.332Z,38.80
2019-05-07T11:13:55.780Z,39.20
2019-05-07T11:16:23.970Z,38.00
2019-05-07T11:18:54.078Z,36.80
2019-05-07T11:21:33.250Z,31.10
2019-05-07T11:24:03.581Z,30.20
2019-05-07T11:26:33.291Z,30.00
2019-05-07T11:29:02.687Z,29.30
2019-05-07T11:31:33.082Z,29.80
2019-05-07T11:34:02.940Z,29.80
2019-05-07T11:36:34.422Z,31.10
2019-05-07T11:39:03.038Z,32.20
2019-05-07T11:41:36.587Z,31.20
2019-05-07T11:44:07.408Z,30.70
2019-05-07T11:46:44.563Z,31.10
2019-05-07T11:49:24.804Z,29.80
2019-05-07T11:51:55.936Z,30.40
2019-05-07T11:54:25.166Z,31.40
2019-05-07T11:56:55.522Z,31.50
2019-05-07T11:59:25.091Z,30.70
2019-05-07T12:01:58.815Z,29.20
2019-05-07T12:04:28.215Z,28.20
2019-05-07T12:06:59.125Z,28.20
2019-05-07T12:09:28.648Z,29.10
2019-05-07T12:11:57.750Z,29.60
2019-05-07T12:14:31.851Z,30.00
2019-05-07T12:16:58.742Z,31.20
2019-05-07T12:19:28.398Z,30.00
2019-05-07T12:21:57.798Z,30.60
2019-05-07T12:24:27.469Z,31.30
2019-05-07T12:26:56.874Z,30.00
2019-05-07T12:29:29.541Z,30.40
2019-05-07T12:32:02.498Z,30.30
2019-05-07T12:34:42.435Z,30.50
2019-05-07T12:37:12.249Z,28.50
2019-05-07T12:39:42.370Z,28.50
2019-05-07T12:42:12.547Z,28.70
2019-05-07T12:44:42.637Z,27.60
2019-05-07T12:47:12.310Z,27.60
2019-05-07T12:49:42.907Z,27.70
2019-05-07T12:52:14.038Z,26.30
2019-05-07T12:54:47.996Z,26.20
2019-05-07T12:57:17.781Z,28.10
2019-05-07T12:59:49.632Z,28.40
2019-05-07T13:02:36.351Z,29.90
2019-05-07T13:04:52.166Z,30.90
2019-05-07T13:07:23.248Z,31.50
2019-05-07T13:09:53.064Z,31.10
2019-05-07T13:12:22.625Z,32.00
2019-05-07T13:14:52.258Z,32.60
2019-05-07T13:17:22.516Z,33.30
2019-05-07T13:19:52.528Z,30.90
2019-05-07T13:22:22.122Z,29.90
2019-05-07T13:24:52.904Z,28.50
2019-05-07T13:27:22.667Z,27.70
2019-05-07T13:29:53.203Z,28.10
2019-05-07T13:32:23.383Z,29.20
2019-05-07T13:34:53.617Z,29.50
2019-05-07T13:37:32.542Z,29.80
2019-05-07T13:40:04.104Z,30.30
2019-05-07T13:42:43.523Z,29.80
2019-05-07T13:45:29.251Z,29.90
2019-05-07T13:48:02.736Z,28.50
2019-05-07T13:50:32.658Z,28.00
2019-05-07T13:53:02.166Z,28.70
2019-05-07T13:55:32.397Z,28.40
2019-05-07T13:58:02.011Z,29.40
2019-05-07T14:00:33.034Z,30.50
2019-05-07T14:03:03.252Z,32.10
2019-05-07T14:05:32.882Z,31.90
2019-05-07T14:08:04.511Z,32.20
2019-05-07T14:10:33.879Z,32.70
2019-05-07T14:13:12.604Z,33.20
2019-05-07T14:15:35.027Z,32.40
2019-05-07T14:18:04.338Z,31.40
2019-05-07T14:20:33.650Z,30.90
2019-05-07T14:23:02.964Z,29.60
2019-05-07T14:25:32.633Z,29.90
2019-05-07T14:28:02.342Z,29.70
2019-05-07T14:30:32.767Z,30.60
2019-05-07T14:33:06.910Z,30.10
2019-05-07T14:35:52.085Z,30.50
2019-05-07T14:38:29.557Z,31.70
2019-05-07T14:41:00.140Z,30.90
2019-05-07T14:43:34.572Z,31.70
2019-05-07T14:46:03.953Z,32.30
2019-05-07T14:48:36.066Z,32.40
2019-05-07T14:51:04.385Z,31.30
2019-05-07T14:53:34.228Z,30.80
2019-05-07T14:56:03.749Z,31.30
2019-05-07T14:58:33.340Z,30.80
2019-05-07T15:01:03.114Z,30.50
2019-05-07T15:03:32.602Z,30.00
2019-05-07T15:06:02.584Z,31.20
2019-05-07T15:08:32.351Z,31.00
2019-05-07T15:11:02.808Z,30.70
2019-05-07T15:13:32.365Z,29.10
2019-05-07T15:16:03.094Z,29.90
2019-05-07T15:18:43.181Z,29.20
2019-05-07T15:21:13.833Z,29.60
2019-05-07T15:23:43.452Z,29.60
2019-05-07T15:26:12.962Z,30.10
2019-05-07T15:28:43.976Z,30.80
2019-05-07T15:31:15.148Z,29.50
2019-05-07T15:33:44.336Z,30.40
2019-05-07T15:36:13.527Z,30.00
2019-05-07T15:38:42.954Z,29.60
2019-05-07T15:41:12.507Z,29.40
2019-05-07T15:43:45.803Z,29.20
2019-05-07T15:46:13.446Z,29.20
2019-05-07T15:48:43.163Z,31.00
2019-05-07T15:51:12.119Z,30.20
2019-05-07T15:53:54.836Z,30.90
2019-05-07T15:56:24.193Z,31.60
2019-05-07T15:58:53.413Z,30.00
2019-05-07T16:01:22.676Z,30.70
2019-05-07T16:03:54.819Z,30.40
2019-05-07T16:06:22.559Z,31.30
2019-05-07T16:08:53.422Z,30.20
2019-05-07T16:11:23.185Z,31.10
2019-05-07T16:14:05.977Z,31.30
2019-05-07T16:16:36.556Z,31.40
2019-05-07T16:19:07.654Z,30.60
2019-05-07T16:21:36.752Z,31.80
2019-05-07T16:24:05.851Z,31.80
2019-05-07T16:26:35.205Z,35.70
2019-05-07T16:29:04.705Z,32.20
2019-05-07T16:31:33.909Z,31.50
2019-05-07T16:34:03.042Z,33.70
2019-05-07T16:36:32.847Z,33.10
2019-05-07T16:39:03.392Z,34.10
2019-05-07T16:41:32.799Z,33.70
2019-05-07T16:44:02.881Z,33.90
2019-05-07T16:46:35.749Z,34.00
2019-05-07T16:49:05.307Z,34.60
2019-05-07T16:51:34.407Z,33.90
2019-05-07T16:54:03.598Z,34.70
2019-05-07T16:56:33.375Z,35.60
2019-05-07T16:59:04.361Z,35.60
2019-05-07T17:01:33.609Z,36.00
2019-05-07T17:04:03.006Z,36.10
2019-05-07T17:06:32.286Z,36.20
2019-05-07T17:09:02.865Z,35.70
2019-05-07T17:11:32.276Z,35.60
2019-05-07T17:14:02.437Z,37.30
2019-05-07T17:16:31.887Z,37.20
2019-05-07T17:19:02.543Z,37.00
2019-05-07T17:21:32.483Z,37.30
2019-05-07T17:24:02.517Z,39.20
2019-05-07T17:26:31.955Z,37.80
2019-05-07T17:29:02.593Z,37.90
2019-05-07T17:31:31.979Z,38.30
2019-05-07T17:34:02.259Z,39.10
2019-05-07T17:36:33.112Z,38.70
2019-05-07T17:39:02.732Z,38.90
2019-05-07T17:41:32.378Z,40.00
2019-05-07T17:44:02.642Z,39.00
2019-05-07T17:46:32.524Z,40.00
2019-05-07T17:49:02.437Z,40.40
2019-05-07T17:51:42.619Z,40.50
2019-05-07T17:54:13.081Z,40.40
2019-05-07T17:56:43.427Z,40.90
2019-05-07T17:59:12.948Z,40.90
2019-05-07T18:01:50.032Z,41.60
2019-05-07T18:04:17.777Z,42.50
2019-05-07T18:06:46.768Z,43.80
2019-05-07T18:09:15.806Z,43.10
2019-05-07T18:11:44.858Z,43.20
2019-05-07T18:14:13.845Z,43.10
2019-05-07T18:16:44.774Z,44.40
2019-05-07T18:19:13.849Z,44.60
2019-05-07T18:21:42.891Z,45.20
2019-05-07T18:24:16.024Z,45.80
2019-05-07T18:26:43.362Z,46.20
2019-05-07T18:29:12.563Z,45.60
2019-05-07T18:31:43.420Z,46.50
2019-05-07T18:34:12.877Z,47.40
2019-05-07T18:36:42.367Z,46.90
2019-05-07T18:39:11.784Z,47.50
2019-05-07T18:41:41.692Z,47.70
2019-05-07T18:44:13.496Z,47.50
2019-05-07T18:46:41.663Z,47.90
2019-05-07T18:49:12.642Z,47.60
2019-05-07T18:51:42.662Z,48.50
2019-05-07T18:54:26.298Z,48.40
2019-05-07T18:56:42.998Z,48.20
2019-05-07T18:59:12.991Z,49.10
2019-05-07T19:01:43.544Z,49.70
2019-05-07T19:04:12.997Z,48.70
2019-05-07T19:06:42.575Z,49.80
2019-05-07T19:09:12.002Z,50.00
2019-05-07T19:11:42.741Z,50.20
2019-05-07T19:14:13.432Z,51.20
2019-05-07T19:16:43.098Z,51.90
2019-05-07T19:19:12.438Z,51.20
2019-05-07T19:21:42.333Z,53.00
2019-05-07T19:24:11.350Z,52.50
2019-05-07T19:26:41.937Z,53.00
2019-05-07T19:29:12.453Z,53.70
2019-05-07T19:31:41.816Z,53.50
2019-05-07T19:34:12.377Z,52.80
2019-05-07T19:36:42.449Z,53.30
2019-05-07T19:39:12.627Z,54.00
2019-05-07T19:41:43.013Z,53.40
2019-05-07T19:44:12.708Z,53.40
2019-05-07T19:46:41.567Z,53.60
2019-05-07T19:49:10.229Z,53.90
2019-05-07T19:51:38.929Z,54.40
2019-05-07T19:54:07.713Z,55.00
2019-05-07T19:56:36.924Z,54.80
2019-05-07T19:59:05.647Z,54.60
2019-05-07T20:01:35.961Z,54.60
2019-05-07T20:04:04.744Z,54.80
2019-05-07T20:06:33.440Z,55.40
2019-05-07T20:09:09.941Z,55.10
2019-05-07T20:11:34.037Z,55.70
2019-05-07T20:14:02.708Z,55.20
2019-05-07T20:16:32.916Z,56.00
2019-05-07T20:19:01.761Z,55.50
2019-05-07T20:21:32.624Z,55.40
2019-05-07T20:24:01.855Z,55.70
2019-05-07T20:26:32.598Z,56.80
2019-05-07T20:29:03.084Z,56.30
2019-05-07T20:31:33.148Z,56.50
2019-05-07T20:34:02.365Z,57.40
2019-05-07T20:36:32.719Z,57.10
2019-05-07T20:39:02.336Z,55.90
2019-05-07T20:41:32.904Z,56.30
2019-05-07T20:44:02.813Z,56.90
2019-05-07T20:46:32.576Z,56.70
2019-05-07T20:49:02.838Z,57.70
2019-05-07T20:51:32.500Z,57.90
2019-05-07T20:54:08.757Z,57.50
2019-05-07T20:56:39.138Z,57.70
2019-05-07T20:59:07.882Z,57.40
2019-05-07T21:01:36.543Z,57.60
2019-05-07T21:04:05.329Z,57.50
2019-05-07T21:06:34.042Z,57.30
2019-05-07T21:09:02.934Z,58.00
2019-05-07T21:11:32.329Z,57.20
2019-05-07T21:14:03.146Z,57.40
2019-05-07T21:16:32.872Z,58.30
2019-05-07T21:19:02.111Z,58.30
2019-05-07T21:21:32.744Z,58.30
2019-05-07T21:24:02.103Z,59.20
2019-05-07T21:26:32.699Z,60.00
2019-05-07T21:29:03.073Z,59.10
2019-05-07T21:31:32.205Z,58.90
2019-05-07T21:34:02.897Z,59.90
2019-05-07T21:36:32.445Z,59.50
2019-05-07T21:39:02.266Z,59.80
2019-05-07T21:41:33.270Z,60.10
2019-05-07T21:44:01.514Z,60.90
2019-05-07T21:46:30.119Z,62.00
2019-05-07T21:48:58.839Z,61.70
2019-05-07T21:51:27.574Z,62.20
2019-05-07T21:54:00.546Z,61.60
2019-05-07T21:56:38.373Z,62.20
2019-05-07T21:59:08.708Z,61.90
2019-05-07T22:01:39.045Z,61.60
2019-05-07T22:04:07.827Z,61.70
2019-05-07T22:06:36.636Z,60.90
2019-05-07T22:09:07.850Z,60.80
2019-05-07T22:11:36.664Z,61.10
2019-05-07T22:14:05.467Z,61.30
2019-05-07T22:16:33.968Z,61.40
2019-05-07T22:19:02.855Z,60.80
2019-05-07T22:21:33.962Z,61.10
2019-05-07T22:24:02.827Z,61.60
2019-05-07T22:26:32.320Z,62.80
2019-05-07T22:29:03.055Z,63.60
2019-05-07T22:31:38.942Z,63.20
2019-05-07T22:34:09.164Z,63.90
2019-05-07T22:36:37.876Z,64.10
2019-05-07T22:39:07.412Z,64.10
2019-05-07T22:41:36.197Z,64.90
2019-05-07T22:44:05.151Z,64.40
2019-05-07T22:46:33.802Z,65.20
2019-05-07T22:49:03.191Z,64.90
2019-05-07T22:51:31.959Z,64.50
2019-05-07T22:54:04.180Z,64.30
2019-05-07T22:56:37.621Z,64.80
2019-05-07T22:59:06.140Z,64.80
2019-05-07T23:01:34.786Z,65.40
2019-05-07T23:04:03.645Z,66.70
2019-05-07T23:06:33.023Z,66.40
2019-05-07T23:09:02.099Z,66.60
2019-05-07T23:11:30.841Z,65.50
2019-05-07T23:13:59.738Z,65.70
2019-05-07T23:16:28.291Z,65.30
2019-05-07T23:18:56.967Z,65.00
2019-05-07T23:21:25.634Z,66.60
2019-05-07T23:23:54.136Z,66.70
2019-05-07T23:26:23.459Z,66.20
2019-05-07T23:28:52.144Z,66.20
2019-05-07T23:31:22.895Z,65.70
2019-05-07T23:33:52.359Z,65.90
2019-05-07T23:36:22.541Z,65.90
2019-05-07T23:38:52.220Z,66.00
2019-05-07T23:41:22.633Z,66.40
2019-05-07T23:44:12.495Z,67.70
2019-05-07T23:46:42.600Z,66.70
2019-05-07T23:49:12.433Z,66.60
2019-05-07T23:51:42.096Z,67.10
2019-05-07T23:54:12.161Z,67.00
2019-05-07T23:56:42.733Z,67.40
2019-05-07T23:59:12.901Z,67.60
